sensor_id;sensor_type;location;lat;lon;timestamp;P1;durP1;ratioP1;P2;durP2;ratioP2
4533;SDS011;2279;51.448;7.306;2022-10-16T00:01:10;3.70;;;3.07;;
4533;SDS011;2279;51.448;7.306;2022-10-16T00:03:37;5.80;;;3.40;;
4533;SDS011;2279;51.448;7.306;2022-10-16T00:06:04;6.73;;;3.50;;
4533;SDS011;2279;51.448;7.306;2022-10-16T00:08:30;3.70;;;2.83;;
4533;SDS011;2279;51.448;7.306;2022-10-16T00:11:00;6.67;;;2.87;;
4533;SDS011;2279;51.448;7.306;2022-10-16T00:13:26;3.53;;;2.60;;
4533;SDS011;2279;51.448;7.306;2022-10-16T00:15:54;3.83;;;2.67;;
4533;SDS011;2279;51.448;7.306;2022-10-16T00:18:21;6.77;;;2.90;;
4533;SDS011;2279;51.448;7.306;2022-10-16T00:20:47;4.90;;;2.43;;
4533;SDS011;2279;51.448;7.306;2022-10-16T00:23:12;2.77;;;2.57;;
4533;SDS011;2279;51.448;7.306;2022-10-16T00:25:38;4.80;;;2.80;;
4533;SDS011;2279;51.448;7.306;2022-10-16T00:28:04;5.43;;;2.90;;
4533;SDS011;2279;51.448;7.306;2022-10-16T00:30:30;6.20;;;2.70;;
4533;SDS011;2279;51.448;7.306;2022-10-16T00:32:56;3.23;;;2.60;;
4533;SDS011;2279;51.448;7.306;2022-10-16T00:35:22;8.77;;;2.77;;
4533;SDS011;2279;51.448;7.306;2022-10-16T00:37:48;2.77;;;2.57;;
4533;SDS011;2279;51.448;7.306;2022-10-16T00:40:14;7.70;;;3.77;;
4533;SDS011;2279;51.448;7.306;2022-10-16T00:42:40;4.23;;;2.60;;
4533;SDS011;2279;51.448;7.306;2022-10-16T00:45:07;3.67;;;2.37;;
4533;SDS011;2279;51.448;7.306;2022-10-16T00:47:38;4.80;;;2.47;;
4533;SDS011;2279;51.448;7.306;2022-10-16T00:52:34;2.50;;;2.30;;
4533;SDS011;2279;51.448;7.306;2022-10-16T00:55:01;4.13;;;3.07;;
4533;SDS011;2279;51.448;7.306;2022-10-16T00:57:28;4.10;;;2.60;;
4533;SDS011;2279;51.448;7.306;2022-10-16T00:59:54;3.00;;;2.40;;
4533;SDS011;2279;51.448;7.306;2022-10-16T01:02:20;4.90;;;2.50;;
4533;SDS011;2279;51.448;7.306;2022-10-16T01:04:50;3.77;;;2.30;;
4533;SDS011;2279;51.448;7.306;2022-10-16T01:12:49;2.40;;;2.20;;
4533;SDS011;2279;51.448;7.306;2022-10-16T01:15:25;3.63;;;3.03;;
4533;SDS011;2279;51.448;7.306;2022-10-16T01:18:03;7.93;;;2.50;;
4533;SDS011;2279;51.448;7.306;2022-10-16T01:20:31;3.77;;;2.30;;
4533;SDS011;2279;51.448;7.306;2022-10-16T01:23:15;2.77;;;2.57;;
4533;SDS011;2279;51.448;7.306;2022-10-16T01:25:49;2.87;;;2.50;;
4533;SDS011;2279;51.448;7.306;2022-10-16T01:28:19;2.73;;;2.37;;
4533;SDS011;2279;51.448;7.306;2022-10-16T01:30:46;2.80;;;2.40;;
4533;SDS011;2279;51.448;7.306;2022-10-16T01:33:14;5.00;;;2.50;;
4533;SDS011;2279;51.448;7.306;2022-10-16T01:35:43;6.53;;;2.70;;
4533;SDS011;2279;51.448;7.306;2022-10-16T01:38:18;4.00;;;1.90;;
4533;SDS011;2279;51.448;7.306;2022-10-16T01:40:46;2.80;;;2.33;;
4533;SDS011;2279;51.448;7.306;2022-10-16T01:43:17;6.07;;;2.57;;
4533;SDS011;2279;51.448;7.306;2022-10-16T01:45:44;3.13;;;2.43;;
4533;SDS011;2279;51.448;7.306;2022-10-16T01:48:16;3.00;;;2.20;;
4533;SDS011;2279;51.448;7.306;2022-10-16T01:50:44;2.70;;;2.50;;
4533;SDS011;2279;51.448;7.306;2022-10-16T01:53:11;2.43;;;2.17;;
4533;SDS011;2279;51.448;7.306;2022-10-16T01:55:38;6.73;;;2.50;;
4533;SDS011;2279;51.448;7.306;2022-10-16T01:58:08;4.50;;;2.00;;
4533;SDS011;2279;51.448;7.306;2022-10-16T02:00:36;3.23;;;2.20;;
4533;SDS011;2279;51.448;7.306;2022-10-16T02:03:03;2.77;;;2.57;;
4533;SDS011;2279;51.448;7.306;2022-10-16T02:05:31;3.40;;;2.10;;
4533;SDS011;2279;51.448;7.306;2022-10-16T02:07:58;3.53;;;2.23;;
4533;SDS011;2279;51.448;7.306;2022-10-16T02:10:24;2.10;;;2.00;;
4533;SDS011;2279;51.448;7.306;2022-10-16T02:12:53;2.47;;;2.27;;
4533;SDS011;2279;51.448;7.306;2022-10-16T02:15:21;2.80;;;2.60;;
4533;SDS011;2279;51.448;7.306;2022-10-16T02:17:47;3.13;;;1.80;;
4533;SDS011;2279;51.448;7.306;2022-10-16T02:20:13;2.80;;;2.60;;
4533;SDS011;2279;51.448;7.306;2022-10-16T02:22:43;2.20;;;2.00;;
4533;SDS011;2279;51.448;7.306;2022-10-16T02:32:46;9.43;;;2.73;;
4533;SDS011;2279;51.448;7.306;2022-10-16T02:35:13;3.13;;;2.60;;
4533;SDS011;2279;51.448;7.306;2022-10-16T02:37:40;2.07;;;1.87;;
4533;SDS011;2279;51.448;7.306;2022-10-16T02:40:07;2.70;;;2.60;;
4533;SDS011;2279;51.448;7.306;2022-10-16T02:42:34;2.33;;;2.07;;
4533;SDS011;2279;51.448;7.306;2022-10-16T02:45:00;3.77;;;2.70;;
4533;SDS011;2279;51.448;7.306;2022-10-16T02:47:26;2.80;;;2.60;;
4533;SDS011;2279;51.448;7.306;2022-10-16T02:49:52;3.90;;;2.10;;
4533;SDS011;2279;51.448;7.306;2022-10-16T02:52:18;2.07;;;1.90;;
4533;SDS011;2279;51.448;7.306;2022-10-16T02:54:44;2.27;;;2.07;;
4533;SDS011;2279;51.448;7.306;2022-10-16T02:57:10;3.53;;;1.73;;
4533;SDS011;2279;51.448;7.306;2022-10-16T02:59:36;2.90;;;2.37;;
4533;SDS011;2279;51.448;7.306;2022-10-16T03:02:03;2.47;;;2.27;;
4533;SDS011;2279;51.448;7.306;2022-10-16T03:04:29;3.70;;;2.10;;
4533;SDS011;2279;51.448;7.306;2022-10-16T03:06:54;2.00;;;1.80;;
4533;SDS011;2279;51.448;7.306;2022-10-16T03:09:21;2.13;;;1.93;;
4533;SDS011;2279;51.448;7.306;2022-10-16T03:11:46;2.07;;;1.97;;
4533;SDS011;2279;51.448;7.306;2022-10-16T03:14:12;4.60;;;2.30;;
4533;SDS011;2279;51.448;7.306;2022-10-16T03:16:38;3.43;;;2.00;;
4533;SDS011;2279;51.448;7.306;2022-10-16T03:19:04;2.17;;;2.07;;
4533;SDS011;2279;51.448;7.306;2022-10-16T03:21:30;1.90;;;1.80;;
4533;SDS011;2279;51.448;7.306;2022-10-16T03:23:56;2.00;;;1.90;;
4533;SDS011;2279;51.448;7.306;2022-10-16T03:26:22;2.40;;;1.60;;
4533;SDS011;2279;51.448;7.306;2022-10-16T03:28:48;1.63;;;1.53;;
4533;SDS011;2279;51.448;7.306;2022-10-16T03:31:14;2.03;;;1.93;;
4533;SDS011;2279;51.448;7.306;2022-10-16T03:33:40;2.00;;;1.90;;
4533;SDS011;2279;51.448;7.306;2022-10-16T03:36:06;2.00;;;1.83;;
4533;SDS011;2279;51.448;7.306;2022-10-16T03:38:32;6.13;;;2.53;;
4533;SDS011;2279;51.448;7.306;2022-10-16T03:40:58;1.73;;;1.63;;
4533;SDS011;2279;51.448;7.306;2022-10-16T03:43:24;2.43;;;1.80;;
4533;SDS011;2279;51.448;7.306;2022-10-16T03:45:50;2.23;;;2.07;;
4533;SDS011;2279;51.448;7.306;2022-10-16T03:48:17;3.03;;;1.60;;
4533;SDS011;2279;51.448;7.306;2022-10-16T03:50:43;2.20;;;2.10;;
4533;SDS011;2279;51.448;7.306;2022-10-16T03:53:09;4.10;;;1.80;;
4533;SDS011;2279;51.448;7.306;2022-10-16T03:55:35;4.43;;;1.70;;
4533;SDS011;2279;51.448;7.306;2022-10-16T03:58:01;2.80;;;1.60;;
4533;SDS011;2279;51.448;7.306;2022-10-16T04:00:27;1.67;;;1.57;;
4533;SDS011;2279;51.448;7.306;2022-10-16T04:02:53;1.70;;;1.60;;
4533;SDS011;2279;51.448;7.306;2022-10-16T04:05:19;2.57;;;1.80;;
4533;SDS011;2279;51.448;7.306;2022-10-16T04:07:45;2.67;;;1.60;;
4533;SDS011;2279;51.448;7.306;2022-10-16T04:10:11;2.20;;;2.10;;
4533;SDS011;2279;51.448;7.306;2022-10-16T04:12:37;1.80;;;1.70;;
4533;SDS011;2279;51.448;7.306;2022-10-16T04:15:03;2.90;;;2.00;;
4533;SDS011;2279;51.448;7.306;2022-10-16T04:17:29;3.93;;;1.87;;
4533;SDS011;2279;51.448;7.306;2022-10-16T04:19:55;2.30;;;1.80;;
4533;SDS011;2279;51.448;7.306;2022-10-16T04:22:20;3.10;;;2.00;;
4533;SDS011;2279;51.448;7.306;2022-10-16T04:24:46;2.00;;;1.80;;
4533;SDS011;2279;51.448;7.306;2022-10-16T04:27:12;1.70;;;1.60;;
4533;SDS011;2279;51.448;7.306;2022-10-16T04:29:38;1.47;;;1.37;;
4533;SDS011;2279;51.448;7.306;2022-10-16T04:32:04;2.93;;;1.80;;
4533;SDS011;2279;51.448;7.306;2022-10-16T04:34:30;2.50;;;2.27;;
4533;SDS011;2279;51.448;7.306;2022-10-16T04:36:56;1.83;;;1.73;;
4533;SDS011;2279;51.448;7.306;2022-10-16T04:39:22;2.00;;;1.90;;
4533;SDS011;2279;51.448;7.306;2022-10-16T04:41:48;1.53;;;1.43;;
4533;SDS011;2279;51.448;7.306;2022-10-16T04:44:14;1.80;;;1.70;;
4533;SDS011;2279;51.448;7.306;2022-10-16T04:46:40;2.03;;;1.80;;
4533;SDS011;2279;51.448;7.306;2022-10-16T04:49:06;3.20;;;1.80;;
4533;SDS011;2279;51.448;7.306;2022-10-16T04:51:32;1.80;;;1.70;;
4533;SDS011;2279;51.448;7.306;2022-10-16T04:53:58;1.97;;;1.87;;
4533;SDS011;2279;51.448;7.306;2022-10-16T04:56:24;1.60;;;1.50;;
4533;SDS011;2279;51.448;7.306;2022-10-16T04:58:50;2.10;;;1.73;;
4533;SDS011;2279;51.448;7.306;2022-10-16T05:01:16;1.83;;;1.73;;
4533;SDS011;2279;51.448;7.306;2022-10-16T05:03:42;1.60;;;1.50;;
4533;SDS011;2279;51.448;7.306;2022-10-16T05:06:08;1.63;;;1.47;;
4533;SDS011;2279;51.448;7.306;2022-10-16T05:08:34;1.77;;;1.50;;
4533;SDS011;2279;51.448;7.306;2022-10-16T05:11:00;1.87;;;1.77;;
4533;SDS011;2279;51.448;7.306;2022-10-16T05:13:26;2.03;;;1.93;;
4533;SDS011;2279;51.448;7.306;2022-10-16T05:15:52;1.70;;;1.50;;
4533;SDS011;2279;51.448;7.306;2022-10-16T05:18:18;2.07;;;1.90;;
4533;SDS011;2279;51.448;7.306;2022-10-16T05:20:44;1.90;;;1.80;;
4533;SDS011;2279;51.448;7.306;2022-10-16T05:23:10;2.00;;;1.70;;
4533;SDS011;2279;51.448;7.306;2022-10-16T05:25:37;1.73;;;1.63;;
4533;SDS011;2279;51.448;7.306;2022-10-16T05:28:03;1.90;;;1.80;;
4533;SDS011;2279;51.448;7.306;2022-10-16T05:30:29;3.43;;;1.80;;
4533;SDS011;2279;51.448;7.306;2022-10-16T05:32:55;1.70;;;1.60;;
4533;SDS011;2279;51.448;7.306;2022-10-16T05:35:21;1.70;;;1.60;;
4533;SDS011;2279;51.448;7.306;2022-10-16T05:37:47;2.70;;;1.60;;
4533;SDS011;2279;51.448;7.306;2022-10-16T05:40:13;3.97;;;1.77;;
4533;SDS011;2279;51.448;7.306;2022-10-16T05:42:40;2.83;;;2.20;;
4533;SDS011;2279;51.448;7.306;2022-10-16T05:45:06;1.77;;;1.67;;
4533;SDS011;2279;51.448;7.306;2022-10-16T05:47:32;2.97;;;2.27;;
4533;SDS011;2279;51.448;7.306;2022-10-16T05:49:58;3.33;;;2.10;;
4533;SDS011;2279;51.448;7.306;2022-10-16T05:52:24;3.70;;;2.27;;
4533;SDS011;2279;51.448;7.306;2022-10-16T05:54:50;1.90;;;1.70;;
4533;SDS011;2279;51.448;7.306;2022-10-16T05:57:16;2.50;;;2.27;;
4533;SDS011;2279;51.448;7.306;2022-10-16T05:59:42;1.93;;;1.83;;
4533;SDS011;2279;51.448;7.306;2022-10-16T06:02:11;1.80;;;1.70;;
4533;SDS011;2279;51.448;7.306;2022-10-16T06:04:37;1.80;;;1.70;;
4533;SDS011;2279;51.448;7.306;2022-10-16T06:07:03;3.73;;;2.00;;
4533;SDS011;2279;51.448;7.306;2022-10-16T06:09:29;4.40;;;1.97;;
4533;SDS011;2279;51.448;7.306;2022-10-16T06:11:55;3.53;;;1.97;;
4533;SDS011;2279;51.448;7.306;2022-10-16T06:14:21;3.43;;;2.20;;
4533;SDS011;2279;51.448;7.306;2022-10-16T06:16:47;2.30;;;1.67;;
4533;SDS011;2279;51.448;7.306;2022-10-16T06:19:13;2.70;;;1.97;;
4533;SDS011;2279;51.448;7.306;2022-10-16T06:21:41;1.80;;;1.70;;
4533;SDS011;2279;51.448;7.306;2022-10-16T06:24:07;2.90;;;1.90;;
4533;SDS011;2279;51.448;7.306;2022-10-16T06:26:33;3.20;;;1.77;;
4533;SDS011;2279;51.448;7.306;2022-10-16T06:28:59;4.60;;;2.03;;
4533;SDS011;2279;51.448;7.306;2022-10-16T06:31:26;1.80;;;1.70;;
4533;SDS011;2279;51.448;7.306;2022-10-16T06:33:54;2.50;;;2.17;;
4533;SDS011;2279;51.448;7.306;2022-10-16T06:36:21;3.80;;;1.93;;
4533;SDS011;2279;51.448;7.306;2022-10-16T06:38:47;4.17;;;1.90;;
4533;SDS011;2279;51.448;7.306;2022-10-16T06:41:14;1.90;;;1.80;;
4533;SDS011;2279;51.448;7.306;2022-10-16T06:43:40;2.07;;;1.87;;
4533;SDS011;2279;51.448;7.306;2022-10-16T06:46:07;2.13;;;2.03;;
4533;SDS011;2279;51.448;7.306;2022-10-16T06:48:33;2.17;;;1.97;;
4533;SDS011;2279;51.448;7.306;2022-10-16T06:53:26;1.93;;;1.80;;
4533;SDS011;2279;51.448;7.306;2022-10-16T06:55:52;1.80;;;1.70;;
4533;SDS011;2279;51.448;7.306;2022-10-16T06:58:18;2.03;;;1.93;;
4533;SDS011;2279;51.448;7.306;2022-10-16T07:00:44;5.43;;;1.93;;
4533;SDS011;2279;51.448;7.306;2022-10-16T07:03:10;1.83;;;1.73;;
4533;SDS011;2279;51.448;7.306;2022-10-16T07:05:37;4.27;;;2.17;;
4533;SDS011;2279;51.448;7.306;2022-10-16T07:08:04;2.93;;;2.20;;
4533;SDS011;2279;51.448;7.306;2022-10-16T07:10:30;2.53;;;2.03;;
4533;SDS011;2279;51.448;7.306;2022-10-16T07:12:56;1.93;;;1.83;;
4533;SDS011;2279;51.448;7.306;2022-10-16T07:15:22;2.10;;;1.90;;
4533;SDS011;2279;51.448;7.306;2022-10-16T07:17:49;2.20;;;2.00;;
4533;SDS011;2279;51.448;7.306;2022-10-16T07:20:15;1.93;;;1.83;;
4533;SDS011;2279;51.448;7.306;2022-10-16T07:22:43;2.27;;;1.93;;
4533;SDS011;2279;51.448;7.306;2022-10-16T07:25:10;1.80;;;1.70;;
4533;SDS011;2279;51.448;7.306;2022-10-16T07:27:36;2.83;;;2.00;;
4533;SDS011;2279;51.448;7.306;2022-10-16T07:30:02;2.90;;;2.20;;
4533;SDS011;2279;51.448;7.306;2022-10-16T07:32:28;2.00;;;1.90;;
4533;SDS011;2279;51.448;7.306;2022-10-16T07:34:54;2.70;;;1.93;;
4533;SDS011;2279;51.448;7.306;2022-10-16T07:37:21;1.90;;;1.80;;
4533;SDS011;2279;51.448;7.306;2022-10-16T07:39:47;3.60;;;2.57;;
4533;SDS011;2279;51.448;7.306;2022-10-16T07:42:13;4.63;;;2.60;;
4533;SDS011;2279;51.448;7.306;2022-10-16T07:44:39;4.10;;;2.10;;
4533;SDS011;2279;51.448;7.306;2022-10-16T07:47:05;4.50;;;2.43;;
4533;SDS011;2279;51.448;7.306;2022-10-16T07:49:31;3.67;;;2.00;;
4533;SDS011;2279;51.448;7.306;2022-10-16T07:51:57;1.90;;;1.80;;
4533;SDS011;2279;51.448;7.306;2022-10-16T07:54:23;2.70;;;2.50;;
4533;SDS011;2279;51.448;7.306;2022-10-16T07:56:49;4.33;;;2.30;;
4533;SDS011;2279;51.448;7.306;2022-10-16T07:59:15;5.20;;;2.20;;
4533;SDS011;2279;51.448;7.306;2022-10-16T08:01:41;1.93;;;1.83;;
4533;SDS011;2279;51.448;7.306;2022-10-16T08:04:08;2.70;;;2.10;;
4533;SDS011;2279;51.448;7.306;2022-10-16T08:06:35;3.73;;;2.30;;
4533;SDS011;2279;51.448;7.306;2022-10-16T08:09:02;2.40;;;1.83;;
4533;SDS011;2279;51.448;7.306;2022-10-16T08:11:28;2.30;;;2.10;;
4533;SDS011;2279;51.448;7.306;2022-10-16T08:13:54;2.23;;;2.10;;
4533;SDS011;2279;51.448;7.306;2022-10-16T08:16:20;2.30;;;2.10;;
4533;SDS011;2279;51.448;7.306;2022-10-16T08:18:46;4.97;;;2.60;;
4533;SDS011;2279;51.448;7.306;2022-10-16T08:21:13;2.43;;;1.70;;
4533;SDS011;2279;51.448;7.306;2022-10-16T08:23:39;2.53;;;2.07;;
4533;SDS011;2279;51.448;7.306;2022-10-16T08:26:05;5.83;;;2.00;;
4533;SDS011;2279;51.448;7.306;2022-10-16T08:28:32;1.60;;;1.50;;
4533;SDS011;2279;51.448;7.306;2022-10-16T08:31:04;4.20;;;1.83;;
4533;SDS011;2279;51.448;7.306;2022-10-16T08:33:30;4.87;;;2.07;;
4533;SDS011;2279;51.448;7.306;2022-10-16T08:35:56;2.33;;;2.13;;
4533;SDS011;2279;51.448;7.306;2022-10-16T08:38:22;1.93;;;1.83;;
4533;SDS011;2279;51.448;7.306;2022-10-16T08:40:48;4.50;;;1.90;;
4533;SDS011;2279;51.448;7.306;2022-10-16T08:48:23;3.43;;;2.00;;
4533;SDS011;2279;51.448;7.306;2022-10-16T08:50:51;5.83;;;1.57;;
4533;SDS011;2279;51.448;7.306;2022-10-16T08:53:22;2.90;;;2.17;;
4533;SDS011;2279;51.448;7.306;2022-10-16T08:55:50;4.93;;;1.80;;
4533;SDS011;2279;51.448;7.306;2022-10-16T08:58:18;4.20;;;1.50;;
4533;SDS011;2279;51.448;7.306;2022-10-16T09:00:48;2.90;;;1.53;;
4533;SDS011;2279;51.448;7.306;2022-10-16T09:03:38;1.57;;;1.30;;
4533;SDS011;2279;51.448;7.306;2022-10-16T09:09:04;2.20;;;1.10;;
4533;SDS011;2279;51.448;7.306;2022-10-16T09:17:19;1.10;;;1.00;;
4533;SDS011;2279;51.448;7.306;2022-10-16T09:19:58;2.60;;;1.30;;
4533;SDS011;2279;51.448;7.306;2022-10-16T09:22:29;1.60;;;1.20;;
4533;SDS011;2279;51.448;7.306;2022-10-16T09:24:59;3.20;;;1.13;;
4533;SDS011;2279;51.448;7.306;2022-10-16T09:27:25;1.50;;;1.20;;
4533;SDS011;2279;51.448;7.306;2022-10-16T09:29:52;2.50;;;1.20;;
4533;SDS011;2279;51.448;7.306;2022-10-16T09:32:18;3.30;;;1.40;;
4533;SDS011;2279;51.448;7.306;2022-10-16T09:34:46;3.73;;;1.00;;
4533;SDS011;2279;51.448;7.306;2022-10-16T09:37:13;4.63;;;1.30;;
4533;SDS011;2279;51.448;7.306;2022-10-16T09:42:22;2.30;;;1.00;;
4533;SDS011;2279;51.448;7.306;2022-10-16T09:44:49;1.73;;;1.23;;
4533;SDS011;2279;51.448;7.306;2022-10-16T09:47:19;1.77;;;1.20;;
4533;SDS011;2279;51.448;7.306;2022-10-16T09:52:18;2.77;;;1.30;;
4533;SDS011;2279;51.448;7.306;2022-10-16T09:54:54;1.83;;;1.03;;
4533;SDS011;2279;51.448;7.306;2022-10-16T09:57:21;2.27;;;1.00;;
4533;SDS011;2279;51.448;7.306;2022-10-16T09:59:51;2.30;;;1.30;;
4533;SDS011;2279;51.448;7.306;2022-10-16T10:02:18;1.93;;;1.00;;
4533;SDS011;2279;51.448;7.306;2022-10-16T10:04:49;1.33;;;1.07;;
4533;SDS011;2279;51.448;7.306;2022-10-16T10:07:16;2.07;;;1.10;;
4533;SDS011;2279;51.448;7.306;2022-10-16T10:09:44;4.60;;;1.23;;
4533;SDS011;2279;51.448;7.306;2022-10-16T10:12:17;2.60;;;1.37;;
4533;SDS011;2279;51.448;7.306;2022-10-16T10:14:50;3.83;;;1.10;;
4533;SDS011;2279;51.448;7.306;2022-10-16T10:17:18;2.27;;;1.23;;
4533;SDS011;2279;51.448;7.306;2022-10-16T10:22:27;3.07;;;1.50;;
4533;SDS011;2279;51.448;7.306;2022-10-16T10:25:00;2.10;;;1.10;;
4533;SDS011;2279;51.448;7.306;2022-10-16T10:27:42;2.60;;;1.30;;
4533;SDS011;2279;51.448;7.306;2022-10-16T10:35:41;4.50;;;0.90;;
4533;SDS011;2279;51.448;7.306;2022-10-16T10:46:36;1.80;;;1.00;;
4533;SDS011;2279;51.448;7.306;2022-10-16T10:51:40;2.20;;;0.97;;
4533;SDS011;2279;51.448;7.306;2022-10-16T10:54:20;3.37;;;1.00;;
4533;SDS011;2279;51.448;7.306;2022-10-16T10:59:30;1.63;;;0.90;;
4533;SDS011;2279;51.448;7.306;2022-10-16T11:07:15;1.10;;;1.00;;
4533;SDS011;2279;51.448;7.306;2022-10-16T11:10:05;3.07;;;1.23;;
4533;SDS011;2279;51.448;7.306;2022-10-16T11:12:30;1.33;;;0.90;;
4533;SDS011;2279;51.448;7.306;2022-10-16T11:17:39;1.40;;;1.00;;
4533;SDS011;2279;51.448;7.306;2022-10-16T11:20:18;2.90;;;1.10;;
4533;SDS011;2279;51.448;7.306;2022-10-16T11:22:53;1.77;;;0.70;;
4533;SDS011;2279;51.448;7.306;2022-10-16T11:30:26;3.60;;;0.80;;
4533;SDS011;2279;51.448;7.306;2022-10-16T11:35:38;0.90;;;0.83;;
4533;SDS011;2279;51.448;7.306;2022-10-16T11:40:51;2.20;;;0.97;;
4533;SDS011;2279;51.448;7.306;2022-10-16T11:43:21;4.57;;;0.77;;
4533;SDS011;2279;51.448;7.306;2022-10-16T11:45:52;3.60;;;0.93;;
4533;SDS011;2279;51.448;7.306;2022-10-16T11:50:56;2.83;;;0.80;;
4533;SDS011;2279;51.448;7.306;2022-10-16T11:54:24;3.23;;;1.10;;
4533;SDS011;2279;51.448;7.306;2022-10-16T11:56:19;1.53;;;0.87;;
4533;SDS011;2279;51.448;7.306;2022-10-16T11:58:50;1.53;;;0.80;;
4533;SDS011;2279;51.448;7.306;2022-10-16T12:01:18;3.37;;;0.90;;
4533;SDS011;2279;51.448;7.306;2022-10-16T12:06:25;2.70;;;0.80;;
4533;SDS011;2279;51.448;7.306;2022-10-16T12:08:54;3.17;;;0.90;;
4533;SDS011;2279;51.448;7.306;2022-10-16T12:14:06;2.03;;;1.33;;
4533;SDS011;2279;51.448;7.306;2022-10-16T12:16:33;1.70;;;1.03;;
4533;SDS011;2279;51.448;7.306;2022-10-16T12:19:12;1.37;;;0.70;;
4533;SDS011;2279;51.448;7.306;2022-10-16T12:21:38;1.93;;;0.80;;
4533;SDS011;2279;51.448;7.306;2022-10-16T12:24:05;2.93;;;1.10;;
4533;SDS011;2279;51.448;7.306;2022-10-16T12:26:32;1.80;;;1.10;;
4533;SDS011;2279;51.448;7.306;2022-10-16T12:29:18;3.53;;;0.90;;
4533;SDS011;2279;51.448;7.306;2022-10-16T12:31:48;1.50;;;0.80;;
4533;SDS011;2279;51.448;7.306;2022-10-16T12:36:49;1.97;;;1.00;;
4533;SDS011;2279;51.448;7.306;2022-10-16T12:39:22;1.37;;;1.00;;
4533;SDS011;2279;51.448;7.306;2022-10-16T12:41:48;3.40;;;1.00;;
4533;SDS011;2279;51.448;7.306;2022-10-16T12:44:25;3.00;;;1.00;;
4533;SDS011;2279;51.448;7.306;2022-10-16T12:46:51;4.90;;;1.97;;
4533;SDS011;2279;51.448;7.306;2022-10-16T12:49:21;1.50;;;0.90;;
4533;SDS011;2279;51.448;7.306;2022-10-16T12:51:49;1.10;;;0.90;;
4533;SDS011;2279;51.448;7.306;2022-10-16T12:54:31;1.97;;;1.33;;
4533;SDS011;2279;51.448;7.306;2022-10-16T12:57:09;4.83;;;0.90;;
4533;SDS011;2279;51.448;7.306;2022-10-16T13:02:17;4.07;;;1.07;;
4533;SDS011;2279;51.448;7.306;2022-10-16T13:10:00;0.90;;;0.80;;
4533;SDS011;2279;51.448;7.306;2022-10-16T13:17:50;3.57;;;0.93;;
4533;SDS011;2279;51.448;7.306;2022-10-16T13:20:28;3.40;;;1.00;;
4533;SDS011;2279;51.448;7.306;2022-10-16T13:23:00;1.10;;;0.80;;
4533;SDS011;2279;51.448;7.306;2022-10-16T13:25:39;1.23;;;1.00;;
4533;SDS011;2279;51.448;7.306;2022-10-16T13:28:08;7.33;;;1.30;;
4533;SDS011;2279;51.448;7.306;2022-10-16T13:30:38;1.30;;;1.20;;
4533;SDS011;2279;51.448;7.306;2022-10-16T13:33:16;2.20;;;1.13;;
4533;SDS011;2279;51.448;7.306;2022-10-16T13:35:49;1.63;;;1.27;;
4533;SDS011;2279;51.448;7.306;2022-10-16T13:38:19;5.00;;;1.33;;
4533;SDS011;2279;51.448;7.306;2022-10-16T13:40:53;1.87;;;0.93;;
4533;SDS011;2279;51.448;7.306;2022-10-16T13:43:21;1.63;;;1.07;;
4533;SDS011;2279;51.448;7.306;2022-10-16T13:46:01;2.60;;;0.90;;
4533;SDS011;2279;51.448;7.306;2022-10-16T13:48:28;2.07;;;0.93;;
4533;SDS011;2279;51.448;7.306;2022-10-16T13:53:35;3.37;;;1.00;;
4533;SDS011;2279;51.448;7.306;2022-10-16T13:56:02;1.37;;;1.20;;
4533;SDS011;2279;51.448;7.306;2022-10-16T13:58:29;1.93;;;0.87;;
4533;SDS011;2279;51.448;7.306;2022-10-16T14:00:55;2.50;;;0.90;;
4533;SDS011;2279;51.448;7.306;2022-10-16T14:03:22;0.90;;;0.80;;
4533;SDS011;2279;51.448;7.306;2022-10-16T14:05:49;1.37;;;1.00;;
4533;SDS011;2279;51.448;7.306;2022-10-16T14:08:16;3.00;;;1.60;;
4533;SDS011;2279;51.448;7.306;2022-10-16T14:10:42;2.10;;;1.10;;
4533;SDS011;2279;51.448;7.306;2022-10-16T14:13:13;2.97;;;2.30;;
4533;SDS011;2279;51.448;7.306;2022-10-16T14:15:45;3.73;;;1.80;;
4533;SDS011;2279;51.448;7.306;2022-10-16T14:18:19;2.37;;;0.90;;
4533;SDS011;2279;51.448;7.306;2022-10-16T14:20:46;2.17;;;0.80;;
4533;SDS011;2279;51.448;7.306;2022-10-16T14:23:31;1.83;;;1.10;;
4533;SDS011;2279;51.448;7.306;2022-10-16T14:26:40;4.60;;;0.90;;
4533;SDS011;2279;51.448;7.306;2022-10-16T14:29:03;3.63;;;1.20;;
4533;SDS011;2279;51.448;7.306;2022-10-16T14:31:34;1.00;;;0.87;;
4533;SDS011;2279;51.448;7.306;2022-10-16T14:34:02;2.77;;;1.60;;
4533;SDS011;2279;51.448;7.306;2022-10-16T14:36:29;7.80;;;1.20;;
4533;SDS011;2279;51.448;7.306;2022-10-16T14:41:28;4.33;;;1.27;;
4533;SDS011;2279;51.448;7.306;2022-10-16T14:43:55;1.77;;;0.93;;
4533;SDS011;2279;51.448;7.306;2022-10-16T14:46:22;2.33;;;1.20;;
4533;SDS011;2279;51.448;7.306;2022-10-16T14:48:56;2.03;;;1.87;;
4533;SDS011;2279;51.448;7.306;2022-10-16T14:51:24;1.80;;;1.10;;
4533;SDS011;2279;51.448;7.306;2022-10-16T14:53:50;1.40;;;0.90;;
4533;SDS011;2279;51.448;7.306;2022-10-16T14:56:18;4.80;;;1.50;;
4533;SDS011;2279;51.448;7.306;2022-10-16T14:58:45;2.70;;;1.33;;
4533;SDS011;2279;51.448;7.306;2022-10-16T15:01:11;2.93;;;1.10;;
4533;SDS011;2279;51.448;7.306;2022-10-16T15:03:37;1.90;;;1.20;;
4533;SDS011;2279;51.448;7.306;2022-10-16T15:06:03;2.17;;;1.20;;
4533;SDS011;2279;51.448;7.306;2022-10-16T15:08:35;1.33;;;1.10;;
4533;SDS011;2279;51.448;7.306;2022-10-16T15:11:01;2.07;;;0.93;;
4533;SDS011;2279;51.448;7.306;2022-10-16T15:13:27;2.13;;;1.50;;
4533;SDS011;2279;51.448;7.306;2022-10-16T15:15:53;1.57;;;1.13;;
4533;SDS011;2279;51.448;7.306;2022-10-16T15:18:19;1.63;;;1.10;;
4533;SDS011;2279;51.448;7.306;2022-10-16T15:20:47;1.40;;;1.30;;
4533;SDS011;2279;51.448;7.306;2022-10-16T15:23:14;2.73;;;1.30;;
4533;SDS011;2279;51.448;7.306;2022-10-16T15:28:06;1.47;;;1.37;;
4533;SDS011;2279;51.448;7.306;2022-10-16T15:30:33;3.23;;;1.53;;
4533;SDS011;2279;51.448;7.306;2022-10-16T15:32:59;4.27;;;1.60;;
4533;SDS011;2279;51.448;7.306;2022-10-16T15:35:25;1.70;;;1.17;;
4533;SDS011;2279;51.448;7.306;2022-10-16T15:37:51;1.50;;;1.30;;
4533;SDS011;2279;51.448;7.306;2022-10-16T15:40:17;6.00;;;1.40;;
4533;SDS011;2279;51.448;7.306;2022-10-16T15:42:43;3.20;;;1.13;;
4533;SDS011;2279;51.448;7.306;2022-10-16T15:45:10;1.47;;;1.27;;
4533;SDS011;2279;51.448;7.306;2022-10-16T15:47:36;3.53;;;1.30;;
4533;SDS011;2279;51.448;7.306;2022-10-16T15:50:03;1.30;;;1.20;;
4533;SDS011;2279;51.448;7.306;2022-10-16T15:52:29;4.80;;;1.60;;
4533;SDS011;2279;51.448;7.306;2022-10-16T15:54:56;4.07;;;1.40;;
4533;SDS011;2279;51.448;7.306;2022-10-16T15:57:22;2.43;;;1.30;;
4533;SDS011;2279;51.448;7.306;2022-10-16T15:59:49;5.10;;;1.50;;
4533;SDS011;2279;51.448;7.306;2022-10-16T16:02:15;8.40;;;2.13;;
4533;SDS011;2279;51.448;7.306;2022-10-16T16:04:41;9.33;;;7.60;;
4533;SDS011;2279;51.448;7.306;2022-10-16T16:07:07;9.40;;;8.27;;
4533;SDS011;2279;51.448;7.306;2022-10-16T16:09:33;8.00;;;6.10;;
4533;SDS011;2279;51.448;7.306;2022-10-16T16:11:59;4.83;;;3.73;;
4533;SDS011;2279;51.448;7.306;2022-10-16T16:14:26;3.40;;;3.10;;
4533;SDS011;2279;51.448;7.306;2022-10-16T16:16:53;5.80;;;3.37;;
4533;SDS011;2279;51.448;7.306;2022-10-16T16:19:19;4.30;;;3.10;;
4533;SDS011;2279;51.448;7.306;2022-10-16T16:21:46;2.63;;;2.40;;
4533;SDS011;2279;51.448;7.306;2022-10-16T16:24:12;5.13;;;2.40;;
4533;SDS011;2279;51.448;7.306;2022-10-16T16:26:37;2.70;;;2.50;;
4533;SDS011;2279;51.448;7.306;2022-10-16T16:29:08;5.63;;;3.00;;
4533;SDS011;2279;51.448;7.306;2022-10-16T16:31:34;9.60;;;2.77;;
4533;SDS011;2279;51.448;7.306;2022-10-16T16:34:00;3.97;;;2.90;;
4533;SDS011;2279;51.448;7.306;2022-10-16T16:36:26;6.30;;;2.73;;
4533;SDS011;2279;51.448;7.306;2022-10-16T16:38:52;2.20;;;2.10;;
4533;SDS011;2279;51.448;7.306;2022-10-16T16:41:22;7.63;;;2.43;;
4533;SDS011;2279;51.448;7.306;2022-10-16T16:43:48;8.53;;;2.30;;
4533;SDS011;2279;51.448;7.306;2022-10-16T16:46:16;4.37;;;2.17;;
4533;SDS011;2279;51.448;7.306;2022-10-16T16:48:42;4.53;;;2.17;;
4533;SDS011;2279;51.448;7.306;2022-10-16T16:51:10;2.23;;;2.13;;
4533;SDS011;2279;51.448;7.306;2022-10-16T16:53:40;2.13;;;1.90;;
4533;SDS011;2279;51.448;7.306;2022-10-16T16:56:06;2.50;;;2.27;;
4533;SDS011;2279;51.448;7.306;2022-10-16T16:58:32;2.43;;;2.00;;
4533;SDS011;2279;51.448;7.306;2022-10-16T17:00:59;3.03;;;2.10;;
4533;SDS011;2279;51.448;7.306;2022-10-16T17:03:27;2.20;;;2.00;;
4533;SDS011;2279;51.448;7.306;2022-10-16T17:06:00;2.27;;;2.07;;
4533;SDS011;2279;51.448;7.306;2022-10-16T17:08:26;4.60;;;2.50;;